createdAt,value
2023-02-11T00:00:56.931Z,-1.00
2023-02-11T00:02:00.289Z,-1.00
2023-02-11T00:03:03.313Z,-1.00
2023-02-11T00:04:08.113Z,-1.00
2023-02-11T00:05:10.462Z,-1.00
2023-02-11T00:06:13.649Z,-1.00
2023-02-11T00:07:15.678Z,-1.00
2023-02-11T00:08:18.716Z,-1.00
2023-02-11T00:09:20.800Z,-1.00
2023-02-11T00:10:24.066Z,-1.00
2023-02-11T00:11:30.411Z,-1.00
2023-02-11T00:12:33.525Z,-1.00
2023-02-11T00:13:35.626Z,-1.10
2023-02-11T00:14:38.663Z,-1.10
2023-02-11T00:15:40.764Z,-1.10
2023-02-11T00:16:43.825Z,-1.10
2023-02-11T00:17:45.887Z,-1.10
2023-02-11T00:18:50.313Z,-1.10
2023-02-11T00:19:54.073Z,-1.10
2023-02-11T00:20:57.117Z,-1.10
2023-02-11T00:21:59.149Z,-1.00
2023-02-11T00:23:02.202Z,-1.00
2023-02-11T00:24:05.150Z,-1.00
2023-02-11T00:25:08.449Z,-1.00
2023-02-11T00:26:14.173Z,-1.00
2023-02-11T00:27:18.786Z,-1.00
2023-02-11T00:28:20.901Z,-1.00
2023-02-11T00:29:24.025Z,-1.00
2023-02-11T00:30:26.083Z,-1.00
2023-02-11T00:31:30.447Z,-1.00
2023-02-11T00:32:32.596Z,-1.00
2023-02-11T00:33:35.634Z,-1.00
2023-02-11T00:34:38.251Z,-1.00
2023-02-11T00:35:43.314Z,-1.00
2023-02-11T00:36:45.415Z,-1.00
2023-02-11T00:37:48.517Z,-1.00
2023-02-11T00:38:51.882Z,-1.00
2023-02-11T00:39:55.108Z,-1.00
2023-02-11T00:40:57.291Z,-1.00
2023-02-11T00:42:01.673Z,-1.00
2023-02-11T00:43:03.987Z,-1.00
2023-02-11T00:44:07.999Z,-1.00
2023-02-11T00:45:10.280Z,-0.90
2023-02-11T00:46:16.329Z,-0.90
2023-02-11T00:47:18.449Z,-0.80
2023-02-11T00:48:21.560Z,-0.80
2023-02-11T00:49:23.668Z,-0.70
2023-02-11T00:50:26.792Z,-0.70
2023-02-11T00:51:31.383Z,-0.70
2023-02-11T00:52:34.622Z,-0.70
2023-02-11T00:53:37.836Z,-0.70
2023-02-11T00:54:42.009Z,-0.70
2023-02-11T00:55:44.064Z,-0.70
2023-02-11T00:56:47.093Z,-0.80
2023-02-11T00:57:49.824Z,-0.80
2023-02-11T00:58:53.383Z,-0.90
2023-02-11T00:59:55.525Z,-0.90
2023-02-11T01:00:58.957Z,-1.00
2023-02-11T01:02:01.304Z,-1.00
2023-02-11T01:03:04.366Z,-1.00
2023-02-11T01:04:07.188Z,-1.10
2023-02-11T01:05:10.272Z,-1.10
2023-02-11T01:06:12.417Z,-1.10
2023-02-11T01:07:16.860Z,-1.10
2023-02-11T01:08:19.053Z,-1.10
2023-02-11T01:09:22.198Z,-1.10
2023-02-11T01:10:24.696Z,-1.10
2023-02-11T01:11:29.043Z,-1.10
2023-02-11T01:12:31.174Z,-1.10
2023-02-11T01:13:37.171Z,-1.10
2023-02-11T01:14:39.362Z,-1.10
2023-02-11T01:15:42.442Z,-1.00
2023-02-11T01:16:44.574Z,-1.00
2023-02-11T01:17:47.673Z,-1.00
2023-02-11T01:18:49.973Z,-1.00
2023-02-11T01:19:53.978Z,-1.00
2023-02-11T01:20:56.486Z,-1.00
2023-02-11T01:21:59.816Z,-1.00
2023-02-11T01:23:03.289Z,-1.00
2023-02-11T01:24:06.566Z,-1.00
2023-02-11T01:25:09.049Z,-1.10
2023-02-11T01:26:12.363Z,-1.10
2023-02-11T01:27:14.648Z,-1.10
2023-02-11T01:28:18.799Z,-1.10
2023-02-11T01:29:20.988Z,-1.20
2023-02-11T01:30:24.234Z,-1.20
2023-02-11T01:31:26.477Z,-1.20
2023-02-11T01:32:29.547Z,-1.20
2023-02-11T01:33:31.875Z,-1.20
2023-02-11T01:34:34.919Z,-1.30
2023-02-11T01:35:38.732Z,-1.30
2023-02-11T01:36:42.025Z,-1.30
2023-02-11T01:37:44.120Z,-1.30
2023-02-11T01:38:49.910Z,-1.30
2023-02-11T01:39:52.044Z,-1.30
2023-02-11T01:40:57.446Z,-1.30
2023-02-11T01:41:59.568Z,-1.40
2023-02-11T01:43:02.659Z,-1.40
2023-02-11T01:44:28.421Z,-1.40
2023-02-11T01:46:02.018Z,-1.40
2023-02-11T01:47:06.369Z,-1.40
2023-02-11T01:48:11.585Z,-1.40
2023-02-11T01:49:19.140Z,-1.50
2023-02-11T01:50:23.514Z,-1.50
2023-02-11T01:51:32.580Z,-1.50
2023-02-11T01:52:39.613Z,-1.60
2023-02-11T01:54:01.842Z,-1.60
2023-02-11T01:55:28.542Z,-1.60
2023-02-11T01:56:50.282Z,-1.70
2023-02-11T01:57:57.313Z,-1.70
2023-02-11T01:59:06.293Z,-1.70
2023-02-11T02:00:13.781Z,-1.70
2023-02-11T02:01:22.218Z,-1.80
2023-02-11T02:02:31.103Z,-1.70
2023-02-11T02:03:36.648Z,-1.80
2023-02-11T02:04:48.803Z,-1.80
2023-02-11T02:05:57.788Z,-1.80
2023-02-11T02:07:04.515Z,-1.90
2023-02-11T02:08:14.713Z,-1.90
2023-02-11T02:09:22.616Z,-1.90
2023-02-11T02:10:29.657Z,-1.90
2023-02-11T02:11:32.284Z,-1.90
2023-02-11T02:12:35.305Z,-1.90
2023-02-11T02:13:38.615Z,-1.90
2023-02-11T02:14:43.240Z,-1.90
2023-02-11T02:15:50.653Z,-1.90
2023-02-11T02:16:53.958Z,-1.80
2023-02-11T02:18:16.614Z,-1.80
2023-02-11T02:19:52.570Z,-1.80
2023-02-11T02:21:38.820Z,-1.80
2023-02-11T02:23:14.926Z,-1.80
2023-02-11T02:24:45.621Z,-1.80
2023-02-11T02:26:22.868Z,-1.80
2023-02-11T02:27:38.129Z,-1.80
2023-02-11T02:29:07.803Z,-1.80
2023-02-11T02:30:39.434Z,-1.80
2023-02-11T02:31:54.672Z,-1.80
2023-02-11T02:33:22.701Z,-1.80
2023-02-11T02:34:33.458Z,-1.80
2023-02-11T02:35:42.328Z,-1.70
2023-02-11T02:36:49.487Z,-1.70
2023-02-11T02:37:58.847Z,-1.70
2023-02-11T02:39:04.215Z,-1.70
2023-02-11T02:40:12.760Z,-1.70
2023-02-11T02:41:17.457Z,-1.70
2023-02-11T02:42:22.032Z,-1.70
2023-02-11T02:43:27.244Z,-1.70
2023-02-11T02:44:31.382Z,-1.70
2023-02-11T02:45:33.628Z,-1.70
2023-02-11T02:46:37.470Z,-1.70
2023-02-11T02:47:40.052Z,-1.80
2023-02-11T02:48:45.813Z,-1.80
2023-02-11T02:49:48.308Z,-1.80
2023-02-11T02:50:59.416Z,-1.80
2023-02-11T02:52:16.716Z,-1.80
2023-02-11T02:53:31.986Z,-1.70
2023-02-11T02:55:04.775Z,-1.80
2023-02-11T02:56:16.014Z,-1.80
2023-02-11T02:57:28.756Z,-1.80
2023-02-11T02:58:55.010Z,-1.80
2023-02-11T03:00:09.184Z,-1.80
2023-02-11T03:01:21.844Z,-1.80
2023-02-11T03:02:31.483Z,-1.80
2023-02-11T03:03:42.589Z,-1.80
2023-02-11T03:04:53.888Z,-1.80
2023-02-11T03:06:04.288Z,-1.80
2023-02-11T03:07:12.497Z,-1.80
2023-02-11T03:08:19.410Z,-1.80
2023-02-11T03:09:29.456Z,-1.80
2023-02-11T03:10:38.532Z,-1.80
2023-02-11T03:11:40.962Z,-1.80
2023-02-11T03:12:45.848Z,-1.70
2023-02-11T03:13:49.642Z,-1.70
2023-02-11T03:14:53.778Z,-1.70
2023-02-11T03:15:58.062Z,-1.70
2023-02-11T03:17:05.568Z,-1.70
2023-02-11T03:18:11.559Z,-1.70
2023-02-11T03:19:18.078Z,-1.70
2023-02-11T03:20:23.022Z,-1.70
2023-02-11T03:21:27.835Z,-1.70
2023-02-11T03:22:34.999Z,-1.70
2023-02-11T03:23:41.437Z,-1.70
2023-02-11T03:24:44.963Z,-1.70
2023-02-11T03:25:53.921Z,-1.70
2023-02-11T03:26:59.524Z,-1.70
2023-02-11T03:28:10.139Z,-1.70
2023-02-11T03:29:20.744Z,-1.70
2023-02-11T03:30:28.104Z,-1.80
2023-02-11T03:31:37.157Z,-1.80
2023-02-11T03:32:43.100Z,-1.80
2023-02-11T03:33:53.501Z,-1.80
2023-02-11T03:34:59.699Z,-1.80
2023-02-11T03:36:08.650Z,-1.90
2023-02-11T03:37:17.334Z,-1.90
2023-02-11T03:38:23.892Z,-1.90
2023-02-11T03:39:31.609Z,-1.90
2023-02-11T03:40:39.506Z,-1.90
2023-02-11T03:41:43.410Z,-1.90
2023-02-11T03:42:51.986Z,-1.90
2023-02-11T03:43:57.162Z,-1.80
2023-02-11T03:45:04.106Z,-1.80
2023-02-11T03:46:07.653Z,-1.80
2023-02-11T03:47:13.453Z,-1.80
2023-02-11T03:48:22.422Z,-1.70
2023-02-11T03:49:29.528Z,-1.70
2023-02-11T03:50:34.011Z,-1.70
2023-02-11T03:51:39.794Z,-1.70
2023-02-11T03:52:42.511Z,-1.70
2023-02-11T03:53:47.737Z,-1.60
2023-02-11T03:54:55.752Z,-1.60
2023-02-11T03:56:03.780Z,-1.60
2023-02-11T03:57:05.860Z,-1.50
2023-02-11T03:58:09.955Z,-1.50
2023-02-11T03:59:11.976Z,-1.50
2023-02-11T04:00:16.263Z,-1.50
2023-02-11T04:01:18.452Z,-1.50
2023-02-11T04:02:23.259Z,-1.50
2023-02-11T04:03:25.343Z,-1.50
2023-02-11T04:04:28.456Z,-1.50
2023-02-11T04:05:30.605Z,-1.50
2023-02-11T04:06:33.804Z,-1.40
2023-02-11T04:07:38.181Z,-1.40
2023-02-11T04:08:40.359Z,-1.40
2023-02-11T04:09:43.408Z,-1.30
2023-02-11T04:10:45.490Z,-1.30
2023-02-11T04:11:48.523Z,-1.30
2023-02-11T04:12:50.704Z,-1.30
2023-02-11T04:13:53.709Z,-1.30
2023-02-11T04:14:55.783Z,-1.30
2023-02-11T04:15:58.871Z,-1.40
2023-02-11T04:17:00.956Z,-1.40
2023-02-11T04:18:04.354Z,-1.50
2023-02-11T04:19:06.434Z,-1.50
2023-02-11T04:20:10.958Z,-1.50
2023-02-11T04:21:13.195Z,-1.50
2023-02-11T04:22:16.200Z,-1.60
2023-02-11T04:23:19.653Z,-1.60
2023-02-11T04:24:22.787Z,-1.60
2023-02-11T04:25:25.969Z,-1.60
2023-02-11T04:26:28.979Z,-1.60
2023-02-11T04:27:31.135Z,-1.60
2023-02-11T04:28:34.942Z,-1.60
2023-02-11T04:29:37.089Z,-1.60
2023-02-11T04:30:40.164Z,-1.60
2023-02-11T04:31:42.273Z,-1.60
2023-02-11T04:32:45.369Z,-1.60
2023-02-11T04:33:47.419Z,-1.60
2023-02-11T04:34:50.576Z,-1.50
2023-02-11T04:35:52.869Z,-1.50
2023-02-11T04:36:56.028Z,-1.50
2023-02-11T04:37:58.090Z,-1.50
2023-02-11T04:39:02.461Z,-1.40
2023-02-11T04:40:05.404Z,-1.40
2023-02-11T04:41:08.446Z,-1.40
2023-02-11T04:42:10.481Z,-1.40
2023-02-11T04:43:13.486Z,-1.50
2023-02-11T04:44:15.643Z,-1.50
2023-02-11T04:45:18.924Z,-1.50
2023-02-11T04:46:21.009Z,-1.50
2023-02-11T04:47:24.208Z,-1.50
2023-02-11T04:48:26.780Z,-1.50
2023-02-11T04:49:29.991Z,-1.50
2023-02-11T04:50:32.072Z,-1.50
2023-02-11T04:51:35.105Z,-1.50
2023-02-11T04:52:37.227Z,-1.60
2023-02-11T04:53:40.442Z,-1.60
2023-02-11T04:54:43.828Z,-1.60
2023-02-11T04:55:50.190Z,-1.60
2023-02-11T04:56:52.362Z,-1.60
2023-02-11T04:57:55.547Z,-1.60
2023-02-11T04:58:57.680Z,-1.60
2023-02-11T05:00:00.757Z,-1.70
2023-02-11T05:01:07.055Z,-1.70
2023-02-11T05:02:10.288Z,-1.70
2023-02-11T05:03:12.668Z,-1.70
2023-02-11T05:04:15.850Z,-1.70
2023-02-11T05:05:18.097Z,-1.70
2023-02-11T05:06:21.109Z,-1.70
2023-02-11T05:07:23.488Z,-1.70
2023-02-11T05:08:26.741Z,-1.70
2023-02-11T05:09:29.089Z,-1.70
2023-02-11T05:10:33.453Z,-1.60
2023-02-11T05:11:36.676Z,-1.60
2023-02-11T05:12:39.668Z,-1.60
2023-02-11T05:13:41.746Z,-1.60
2023-02-11T05:14:44.733Z,-1.60
2023-02-11T05:15:46.806Z,-1.60
2023-02-11T05:16:50.044Z,-1.60
2023-02-11T05:17:52.227Z,-1.60
2023-02-11T05:18:55.808Z,-1.60
2023-02-11T05:19:57.864Z,-1.70
2023-02-11T05:21:00.927Z,-1.60
2023-02-11T05:22:03.762Z,-1.60
2023-02-11T05:23:06.963Z,-1.70
2023-02-11T05:24:09.098Z,-1.60
2023-02-11T05:25:12.155Z,-1.60
2023-02-11T05:26:15.781Z,-1.60
2023-02-11T05:27:18.866Z,-1.70
2023-02-11T05:28:20.922Z,-1.70
2023-02-11T05:29:23.970Z,-1.70
2023-02-11T05:30:26.171Z,-1.70
2023-02-11T05:31:29.312Z,-1.70
2023-02-11T05:32:31.614Z,-1.80
2023-02-11T05:33:34.877Z,-1.80
2023-02-11T05:34:37.273Z,-1.80
2023-02-11T05:35:40.331Z,-1.80
2023-02-11T05:36:42.412Z,-1.80
2023-02-11T05:37:45.464Z,-1.80
2023-02-11T05:38:47.747Z,-1.80
2023-02-11T05:39:50.941Z,-1.90
2023-02-11T05:40:52.991Z,-1.80
2023-02-11T05:41:57.467Z,-1.80
2023-02-11T05:42:59.504Z,-1.80
2023-02-11T05:44:02.555Z,-1.80
2023-02-11T05:45:05.123Z,-1.80
2023-02-11T05:46:08.359Z,-1.80
2023-02-11T05:47:10.456Z,-1.80
2023-02-11T05:48:13.710Z,-1.80
2023-02-11T05:49:16.780Z,-1.80
2023-02-11T05:50:19.871Z,-1.80
2023-02-11T05:51:22.052Z,-1.80
2023-02-11T05:52:25.126Z,-1.80
2023-02-11T05:53:27.296Z,-1.80
2023-02-11T05:54:30.529Z,-1.80
2023-02-11T05:55:33.072Z,-1.80
2023-02-11T05:56:36.125Z,-1.90
2023-02-11T05:57:39.619Z,-1.90
2023-02-11T05:58:42.703Z,-1.90
2023-02-11T05:59:44.821Z,-1.90
2023-02-11T06:00:47.868Z,-1.90
2023-02-11T06:01:49.997Z,-1.90
2023-02-11T06:02:53.136Z,-2.00
2023-02-11T06:03:55.318Z,-2.00
2023-02-11T06:04:58.367Z,-2.00
2023-02-11T06:06:00.499Z,-2.00
2023-02-11T06:07:04.033Z,-2.00
2023-02-11T06:08:06.099Z,-2.00
2023-02-11T06:09:10.180Z,-2.00
2023-02-11T06:10:13.280Z,-1.90
2023-02-11T06:11:16.918Z,-1.90
2023-02-11T06:12:19.078Z,-1.90
2023-02-11T06:13:23.529Z,-1.80
2023-02-11T06:14:25.621Z,-1.80
2023-02-11T06:15:28.664Z,-1.70
2023-02-11T06:16:31.067Z,-1.70
2023-02-11T06:17:34.252Z,-1.60
2023-02-11T06:18:36.367Z,-1.60
2023-02-11T06:19:39.542Z,-1.60
2023-02-11T06:20:41.730Z,-1.50
2023-02-11T06:21:44.839Z,-1.50
2023-02-11T06:22:47.318Z,-1.50
2023-02-11T06:23:50.343Z,-1.50
2023-02-11T06:25:01.412Z,-1.50
2023-02-11T06:26:08.959Z,-1.50
2023-02-11T06:27:11.192Z,-1.50
2023-02-11T06:28:14.281Z,-1.60
2023-02-11T06:29:17.901Z,-1.60
2023-02-11T06:30:21.126Z,-1.70
2023-02-11T06:31:23.215Z,-1.70
2023-02-11T06:32:43.427Z,-1.70
2023-02-11T06:33:47.369Z,-1.70
2023-02-11T06:34:49.459Z,-1.70
2023-02-11T06:35:52.856Z,-1.70
2023-02-11T06:36:55.018Z,-1.70
2023-02-11T06:37:58.046Z,-1.70
2023-02-11T06:39:00.196Z,-1.60
2023-02-11T06:40:03.386Z,-1.60
2023-02-11T06:41:05.461Z,-1.50
2023-02-11T06:42:08.482Z,-1.50
2023-02-11T06:43:10.512Z,-1.40
2023-02-11T06:44:13.585Z,-1.40
2023-02-11T06:45:17.053Z,-1.30
2023-02-11T06:46:20.407Z,-1.30
2023-02-11T06:47:22.510Z,-1.30
2023-02-11T06:48:25.675Z,-1.30
2023-02-11T06:49:27.712Z,-1.30
2023-02-11T06:50:30.828Z,-1.30
2023-02-11T06:51:32.884Z,-1.30
2023-02-11T06:52:36.159Z,-1.30
2023-02-11T06:53:40.205Z,-1.30
2023-02-11T06:54:43.258Z,-1.30
2023-02-11T06:55:45.365Z,-1.30
2023-02-11T06:56:48.376Z,-1.30
2023-02-11T06:57:50.445Z,-1.30
2023-02-11T06:58:54.646Z,-1.30
2023-02-11T06:59:56.770Z,-1.30
2023-02-11T07:01:01.348Z,-1.30
2023-02-11T07:02:03.531Z,-1.30
2023-02-11T07:03:06.738Z,-1.30
2023-02-11T07:04:08.963Z,-1.30
2023-02-11T07:05:12.246Z,-1.30
2023-02-11T07:06:16.656Z,-1.30
2023-02-11T07:07:19.657Z,-1.20
2023-02-11T07:08:21.766Z,-1.20
2023-02-11T07:09:24.851Z,-1.20
2023-02-11T07:10:26.917Z,-1.10
2023-02-11T07:11:30.462Z,-1.10
2023-02-11T07:12:32.652Z,-1.10
2023-02-11T07:13:35.712Z,-1.10
2023-02-11T07:14:38.242Z,-1.00
2023-02-11T07:15:41.280Z,-1.00
2023-02-11T07:16:44.727Z,-0.90
2023-02-11T07:17:47.757Z,-0.90
2023-02-11T07:18:50.198Z,-0.90
2023-02-11T07:19:53.295Z,-0.80
2023-02-11T07:20:55.373Z,-0.70
2023-02-11T07:21:58.468Z,-0.70
2023-02-11T07:23:00.514Z,-0.60
2023-02-11T07:24:09.610Z,-0.60
2023-02-11T07:25:12.798Z,-0.50
2023-02-11T07:26:17.815Z,-0.50
2023-02-11T07:27:19.858Z,-0.40
2023-02-11T07:28:22.918Z,-0.30
2023-02-11T07:29:25.947Z,-0.30
2023-02-11T07:30:28.133Z,-0.20
2023-02-11T07:31:31.874Z,-0.10
2023-02-11T07:32:35.380Z,-0.10
2023-02-11T07:33:38.646Z,0.00
2023-02-11T07:34:40.709Z,0.10
2023-02-11T07:35:43.833Z,0.10
2023-02-11T07:36:45.937Z,0.20
2023-02-11T07:37:49.020Z,0.30
2023-02-11T07:38:51.097Z,0.30
2023-02-11T07:39:54.180Z,0.30
2023-02-11T07:41:00.789Z,0.40
2023-02-11T07:42:04.711Z,0.40
2023-02-11T07:43:06.797Z,0.40
2023-02-11T07:44:10.222Z,0.50
2023-02-11T07:45:13.796Z,0.50
2023-02-11T07:46:19.004Z,0.50
2023-02-11T07:47:21.286Z,0.60
2023-02-11T07:48:25.846Z,0.60
2023-02-11T07:49:29.097Z,0.70
2023-02-11T07:50:32.151Z,0.70
2023-02-11T07:51:35.253Z,0.70
2023-02-11T07:52:37.376Z,0.70
2023-02-11T07:53:40.810Z,0.80
2023-02-11T07:54:44.030Z,0.80
2023-02-11T07:55:46.083Z,0.80
2023-02-11T07:56:49.075Z,0.90
2023-02-11T07:57:51.187Z,1.00
2023-02-11T07:58:54.257Z,1.10
2023-02-11T07:59:56.319Z,1.20
2023-02-11T08:01:03.301Z,1.30
2023-02-11T08:02:06.425Z,1.50
2023-02-11T08:03:08.553Z,1.60
2023-02-11T08:04:12.994Z,1.80
2023-02-11T08:05:16.191Z,1.90
2023-02-11T08:06:21.161Z,2.00
2023-02-11T08:07:24.689Z,2.00
2023-02-11T08:08:28.460Z,2.10
2023-02-11T08:09:34.341Z,2.10
2023-02-11T08:10:37.103Z,2.10
2023-02-11T08:11:40.126Z,2.20
2023-02-11T08:12:42.187Z,2.20
2023-02-11T08:13:45.751Z,2.20
2023-02-11T08:14:47.769Z,2.20
2023-02-11T08:15:51.036Z,2.20
2023-02-11T08:16:53.392Z,2.30
2023-02-11T08:17:56.504Z,2.30
2023-02-11T08:19:01.010Z,2.30
2023-02-11T08:20:06.713Z,2.30
2023-02-11T08:21:10.525Z,2.40
2023-02-11T08:22:13.600Z,2.40
2023-02-11T08:23:15.696Z,2.50
2023-02-11T08:24:18.740Z,2.50
2023-02-11T08:25:20.922Z,2.60
2023-02-11T08:26:25.702Z,2.70
2023-02-11T08:27:29.951Z,2.80
2023-02-11T08:28:32.108Z,2.90
2023-02-11T08:29:35.161Z,3.00
2023-02-11T08:30:37.318Z,3.10
2023-02-11T08:31:42.820Z,3.30
2023-02-11T08:32:45.016Z,3.40
2023-02-11T08:33:48.496Z,3.60
2023-02-11T08:34:52.782Z,3.70
2023-02-11T08:35:56.266Z,3.90
2023-02-11T08:36:59.284Z,4.10
2023-02-11T08:38:01.554Z,4.20
2023-02-11T08:39:20.751Z,4.30
2023-02-11T08:40:23.087Z,4.40
2023-02-11T08:41:26.268Z,4.60
2023-02-11T08:42:29.304Z,4.70
2023-02-11T08:43:32.905Z,4.80
2023-02-11T08:44:35.960Z,4.90
2023-02-11T08:45:38.138Z,5.00
2023-02-11T08:46:41.223Z,5.10
2023-02-11T08:47:44.256Z,5.20
2023-02-11T08:48:47.416Z,5.40
2023-02-11T08:49:50.557Z,5.50
2023-02-11T08:50:52.652Z,5.70
2023-02-11T08:51:59.482Z,5.80
2023-02-11T08:53:02.538Z,6.00
2023-02-11T08:54:09.460Z,6.10
2023-02-11T08:55:12.790Z,6.30
2023-02-11T08:56:16.494Z,6.40
2023-02-11T08:57:19.534Z,6.60
2023-02-11T08:58:22.927Z,6.70
2023-02-11T08:59:25.053Z,6.70
2023-02-11T09:00:28.360Z,6.80
2023-02-11T09:01:31.883Z,6.80
2023-02-11T09:02:35.007Z,6.80
2023-02-11T09:03:37.098Z,6.80
2023-02-11T09:04:40.263Z,6.70
2023-02-11T09:05:43.105Z,6.70
2023-02-11T09:06:46.555Z,6.60
2023-02-11T09:07:49.948Z,6.50
2023-02-11T09:08:54.722Z,6.30
2023-02-11T09:09:57.750Z,6.30
2023-02-11T09:10:59.810Z,6.20
2023-02-11T09:12:02.878Z,6.10
2023-02-11T09:13:05.005Z,6.10
2023-02-11T09:14:08.737Z,6.00
2023-02-11T09:15:10.843Z,5.90
2023-02-11T09:16:19.775Z,5.90
2023-02-11T09:17:22.807Z,5.90
2023-02-11T09:18:24.977Z,5.90
2023-02-11T09:19:28.011Z,5.90
2023-02-11T09:20:30.404Z,5.90
2023-02-11T09:21:33.994Z,5.90
2023-02-11T09:22:36.996Z,5.90
2023-02-11T09:23:43.577Z,6.00
2023-02-11T09:24:46.581Z,6.00
2023-02-11T09:25:49.837Z,6.10
2023-02-11T09:26:53.065Z,6.10
2023-02-11T09:27:55.095Z,6.10
2023-02-11T09:28:58.328Z,6.10
2023-02-11T09:30:01.367Z,6.10
2023-02-11T09:31:06.069Z,6.10
2023-02-11T09:32:10.065Z,6.20
2023-02-11T09:33:12.245Z,6.20
2023-02-11T09:34:15.970Z,6.30
2023-02-11T09:35:18.201Z,6.30
2023-02-11T09:36:22.957Z,6.30
2023-02-11T09:37:25.951Z,6.40
2023-02-11T09:38:28.278Z,6.40
2023-02-11T09:39:32.621Z,6.40
2023-02-11T09:40:34.675Z,6.50
2023-02-11T09:42:18.005Z,6.50
2023-02-11T09:43:23.817Z,6.60
2023-02-11T09:44:28.246Z,6.60
2023-02-11T09:45:32.966Z,6.60
2023-02-11T09:46:40.108Z,6.50
2023-02-11T09:47:48.918Z,6.50
2023-02-11T09:48:55.077Z,6.50
2023-02-11T09:50:00.662Z,6.50
2023-02-11T09:51:05.088Z,6.40
2023-02-11T09:52:13.932Z,6.30
2023-02-11T09:53:23.333Z,6.40
2023-02-11T09:54:30.349Z,6.40
2023-02-11T09:55:38.104Z,6.30
2023-02-11T09:56:40.201Z,6.40
2023-02-11T09:57:43.247Z,6.50
2023-02-11T09:58:47.215Z,6.60
2023-02-11T09:59:50.396Z,6.70
2023-02-11T10:01:03.228Z,6.80
2023-02-11T10:02:15.096Z,6.90
2023-02-11T10:03:42.578Z,7.00
2023-02-11T10:04:56.076Z,7.20
2023-02-11T10:06:27.723Z,7.30
2023-02-11T10:07:38.794Z,7.40
2023-02-11T10:08:51.279Z,7.60
2023-02-11T10:10:09.775Z,7.70
2023-02-11T10:11:31.349Z,7.90
2023-02-11T10:12:56.051Z,8.00
2023-02-11T10:14:07.321Z,8.10
2023-02-11T10:15:21.136Z,8.20
2023-02-11T10:16:40.921Z,8.20
2023-02-11T10:17:56.432Z,8.20
2023-02-11T10:19:22.341Z,8.20
2023-02-11T10:20:33.479Z,8.10
2023-02-11T10:21:46.567Z,8.00
2023-02-11T10:22:51.672Z,8.00
2023-02-11T10:23:57.215Z,8.00
2023-02-11T10:25:01.751Z,8.10
2023-02-11T10:26:11.473Z,8.00
2023-02-11T10:27:21.139Z,8.00
2023-02-11T10:28:28.685Z,8.00
2023-02-11T10:29:37.625Z,8.10
2023-02-11T10:30:44.644Z,8.10
2023-02-11T10:31:47.452Z,8.10
2023-02-11T10:32:55.762Z,8.10
2023-02-11T10:34:03.722Z,8.20
2023-02-11T10:35:16.191Z,8.30
2023-02-11T10:36:21.848Z,8.40
2023-02-11T10:37:24.975Z,8.40
2023-02-11T10:38:29.134Z,8.50
2023-02-11T10:39:31.896Z,8.50
2023-02-11T10:40:34.929Z,8.60
2023-02-11T10:41:41.936Z,8.70
2023-02-11T10:42:50.040Z,8.80
2023-02-11T10:43:53.685Z,9.00
2023-02-11T10:45:00.561Z,9.00
2023-02-11T10:46:06.758Z,9.20
2023-02-11T10:47:13.508Z,9.30
2023-02-11T10:48:38.611Z,9.30
2023-02-11T10:49:42.447Z,9.30
2023-02-11T10:50:45.552Z,9.30
2023-02-11T10:51:47.577Z,9.30
2023-02-11T10:52:50.670Z,9.20
2023-02-11T10:54:14.481Z,9.20
2023-02-11T10:55:20.933Z,9.30
2023-02-11T10:56:28.305Z,9.30
2023-02-11T10:57:36.156Z,9.40
2023-02-11T10:58:44.937Z,9.40
2023-02-11T10:59:47.779Z,9.50
2023-02-11T11:00:55.115Z,9.60
2023-02-11T11:02:00.566Z,9.70
2023-02-11T11:03:06.284Z,9.70
2023-02-11T11:04:34.828Z,9.60
2023-02-11T11:05:46.932Z,9.50
2023-02-11T11:06:49.067Z,9.50
2023-02-11T11:07:57.101Z,9.50
2023-02-11T11:09:01.141Z,9.60
2023-02-11T11:10:06.781Z,9.70
2023-02-11T11:11:12.278Z,9.70
2023-02-11T11:12:25.912Z,9.80
2023-02-11T11:13:32.562Z,9.80
2023-02-11T11:14:35.953Z,9.80
2023-02-11T11:15:39.082Z,9.90
2023-02-11T11:16:54.683Z,10.00
2023-02-11T11:18:22.465Z,10.10
2023-02-11T11:19:25.836Z,10.30
2023-02-11T11:20:32.595Z,10.40
2023-02-11T11:21:41.727Z,10.50
2023-02-11T11:22:45.447Z,10.60
2023-02-11T11:23:51.577Z,10.60
2023-02-11T11:24:55.281Z,10.70
2023-02-11T11:26:04.898Z,10.70
2023-02-11T11:27:07.865Z,10.80
2023-02-11T11:28:24.570Z,10.80
2023-02-11T11:29:34.789Z,10.80
2023-02-11T11:30:43.209Z,10.80
2023-02-11T11:31:52.585Z,10.80
2023-02-11T11:32:56.654Z,10.80
2023-02-11T11:34:00.980Z,10.70
2023-02-11T11:35:07.537Z,10.70
2023-02-11T11:36:12.488Z,10.60
2023-02-11T11:37:23.849Z,10.60
2023-02-11T11:38:27.049Z,10.60
2023-02-11T11:39:32.669Z,10.60
2023-02-11T11:40:35.943Z,10.70
2023-02-11T11:41:51.092Z,10.70
2023-02-11T11:43:07.294Z,10.70
2023-02-11T11:44:24.603Z,10.80
2023-02-11T11:45:28.002Z,10.80
2023-02-11T11:46:35.998Z,10.90
2023-02-11T11:47:44.298Z,11.00
2023-02-11T11:48:49.175Z,11.10
2023-02-11T11:50:12.703Z,11.20
2023-02-11T11:51:15.810Z,11.30
2023-02-11T11:52:26.523Z,11.30
2023-02-11T11:53:37.358Z,11.30
2023-02-11T11:54:43.240Z,11.20
2023-02-11T11:55:49.044Z,11.20
2023-02-11T11:56:59.150Z,11.20
2023-02-11T11:58:01.276Z,11.20
2023-02-11T11:59:12.147Z,11.20
2023-02-11T12:00:17.825Z,11.30
2023-02-11T12:01:31.376Z,11.40
2023-02-11T12:02:59.510Z,11.50
2023-02-11T12:04:27.424Z,11.50
2023-02-11T12:05:37.566Z,11.40
2023-02-11T12:06:48.278Z,11.40
2023-02-11T12:08:02.748Z,11.40
2023-02-11T12:09:15.458Z,11.50
2023-02-11T12:10:35.724Z,11.60
2023-02-11T12:11:52.260Z,11.60
2023-02-11T12:13:02.363Z,11.70
2023-02-11T12:14:16.810Z,11.80
2023-02-11T12:15:31.260Z,11.80
2023-02-11T12:16:50.716Z,11.80
2023-02-11T12:18:09.052Z,11.90
2023-02-11T12:19:51.438Z,11.90
2023-02-11T12:21:14.087Z,12.00
2023-02-11T12:22:28.484Z,12.20
2023-02-11T12:23:44.196Z,12.20
2023-02-11T12:25:01.248Z,12.20
2023-02-11T12:26:12.844Z,12.30
2023-02-11T12:27:24.686Z,12.20
2023-02-11T12:28:38.491Z,12.20
2023-02-11T12:29:58.965Z,12.10
2023-02-11T12:31:15.291Z,12.10
2023-02-11T12:32:26.390Z,12.20
2023-02-11T12:33:49.770Z,12.20
2023-02-11T12:35:16.996Z,12.40
2023-02-11T12:36:35.629Z,12.40
2023-02-11T12:37:49.585Z,12.40
2023-02-11T12:39:04.353Z,12.40
2023-02-11T12:40:18.011Z,12.40
2023-02-11T12:41:56.455Z,12.50
2023-02-11T12:43:19.221Z,12.50
2023-02-11T12:44:33.334Z,12.40
2023-02-11T12:45:47.948Z,12.60
2023-02-11T12:46:59.778Z,12.60
2023-02-11T12:48:14.735Z,12.70
2023-02-11T12:49:42.302Z,12.80
2023-02-11T12:50:56.797Z,12.80
2023-02-11T12:52:15.520Z,12.80
2023-02-11T12:53:41.749Z,12.80
2023-02-11T12:54:50.226Z,12.70
2023-02-11T12:55:57.818Z,12.70
2023-02-11T12:57:04.867Z,12.70
2023-02-11T12:58:14.311Z,12.60
2023-02-11T12:59:28.009Z,12.50
2023-02-11T13:00:39.862Z,12.40
2023-02-11T13:01:44.663Z,12.20
2023-02-11T13:02:55.528Z,12.00
2023-02-11T13:04:05.774Z,11.90
2023-02-11T13:05:24.252Z,11.90
2023-02-11T13:06:33.693Z,11.90
2023-02-11T13:07:43.101Z,11.80
2023-02-11T13:08:49.468Z,11.80
2023-02-11T13:09:56.872Z,11.70
2023-02-11T13:11:02.559Z,11.80
2023-02-11T13:12:22.155Z,11.70
2023-02-11T13:13:30.634Z,11.70
2023-02-11T13:14:37.780Z,11.70
2023-02-11T13:15:42.064Z,11.70
2023-02-11T13:16:47.541Z,11.70
2023-02-11T13:17:57.384Z,11.70
2023-02-11T13:19:07.972Z,11.70
2023-02-11T13:20:23.741Z,11.80
2023-02-11T13:21:44.473Z,11.90
2023-02-11T13:22:52.257Z,11.70
2023-02-11T13:24:02.889Z,11.40
2023-02-11T13:25:16.181Z,11.30
2023-02-11T13:26:25.323Z,11.20
2023-02-11T13:27:39.926Z,11.10
2023-02-11T13:28:49.603Z,11.10
2023-02-11T13:30:27.020Z,11.10
2023-02-11T13:31:30.239Z,11.10
2023-02-11T13:33:03.488Z,11.10
2023-02-11T13:34:25.150Z,11.10
2023-02-11T13:35:31.031Z,11.00
2023-02-11T13:36:35.133Z,11.00
2023-02-11T13:37:38.699Z,11.00
2023-02-11T13:38:42.361Z,11.00
2023-02-11T13:39:56.824Z,11.00
2023-02-11T13:41:04.000Z,11.10
2023-02-11T13:42:13.833Z,11.10
2023-02-11T13:43:22.296Z,11.30
2023-02-11T13:44:27.800Z,11.40
2023-02-11T13:45:33.866Z,11.60
2023-02-11T13:46:54.083Z,11.70
2023-02-11T13:47:59.186Z,11.90
2023-02-11T13:49:01.427Z,12.10
2023-02-11T13:50:08.376Z,12.20
2023-02-11T13:51:14.612Z,12.40
2023-02-11T13:52:25.902Z,12.40
2023-02-11T13:53:29.828Z,12.50
2023-02-11T13:54:35.463Z,12.50
2023-02-11T13:55:48.789Z,12.60
2023-02-11T13:57:23.232Z,12.60
2023-02-11T13:58:40.013Z,12.70
2023-02-11T13:59:46.492Z,12.80
2023-02-11T14:00:52.404Z,12.90
2023-02-11T14:02:38.516Z,12.90
2023-02-11T14:04:36.568Z,12.80
2023-02-11T14:05:57.062Z,12.60
2023-02-11T14:07:48.742Z,12.40
2023-02-11T14:09:03.453Z,12.30
2023-02-11T14:10:27.250Z,12.10
2023-02-11T14:11:51.523Z,11.90
2023-02-11T14:13:06.904Z,11.80
2023-02-11T14:14:23.802Z,11.70
2023-02-11T14:15:27.607Z,11.70
2023-02-11T14:16:37.989Z,11.70
2023-02-11T14:17:41.802Z,11.80
2023-02-11T14:19:02.578Z,11.80
2023-02-11T14:20:41.996Z,11.90
2023-02-11T14:21:46.173Z,11.90
2023-02-11T14:22:52.665Z,11.70
2023-02-11T14:24:33.068Z,11.60
2023-02-11T14:25:38.690Z,11.50
2023-02-11T14:26:47.308Z,11.30
2023-02-11T14:27:55.278Z,11.30
2023-02-11T14:29:06.791Z,11.20
2023-02-11T14:30:31.602Z,11.20
2023-02-11T14:31:40.613Z,11.20